Huvudsida
METAR-TAF:

METAR-TAF

Flygplatser :

Kuwaits internationella flygplats

Kuwait, Kuwait

latitud: 29-13N, longitud: 047-59E, höjd: 55 m

Aktuellt väderrapport

Denna rapport gjordes för 33 minuter sedan, klockan 03:00 UTC
Vind 7 kt från syd
Temperatur 30°C
Fuktighet 24%
Tryck 1003 hPa
Sikt: 5000 m
Klar himmel
(lätt) torrdis

METAR: OKBK 250300Z 17007KT 5000 -HZ SKC 30/07 Q1003 NOSIG

Tid: 06:33 (03:33 UTC)

Väderprognos

Denna rapport gjordes för 10 timmar och 48 minuter sedan, klockan 16:45 UTC
Prognos gäller från 24 kl. 18 UTC till 25 kl. 24 UTC
Vind 8 kt från syd i byarna ända upp till 20 kt
Sikt: 7000 m
Temporärt
från 24 kl. 18 UTC till 24 kl. 24 UTC
Sikt: 3000 m
högt damm drev

TAF: OKBK 241645Z 2418/2524 18008G20KT 7000 NSC TEMPO 2418/2424 3000 BLDU

Aktuella väderrapporter och prognoser från 4000 flygplatser (METAR- och TAF-rapporter).

De tillgängliga stationerna syns som gula och röda prickar på kartan.

För musen över prickarna för att se namnen på stationerna.

Klicka sedan för att få väderrapporter och prognoser.

För att ändra kartan: Klicka på de gröna knapparna med ett svart kors på för att zooma in; den gröna knappen med ett streck på för att zooma ut; eller på de gröna pilarna för angränsande kartor.


METAR-TAF: